Time;durP1;ratioP1;P1;durP2;ratioP2;P2;SDS_P1;SDS_P2;PMS_P1;PMS_P2;Temp;Humidity;BMP_temperature;BMP_pressure;BME280_temperature;BME280_humidity;BME280_pressure;Samples;Min_cycle;Max_cycle;Signal;HPM_P1;HPM_P2
2022/09/15 00:00:59;;;;;;;3.10;1.15;;;;;;;17.13;78.39;100585.59;7387118;19;20536;-78
2022/09/15 00:03:27;;;;;;;4.50;1.35;;;;;;;17.12;78.51;100587.41;7389353;19;20103;-77
2022/09/15 00:05:55;;;;;;;5.80;1.13;;;;;;;17.10;78.67;100598.28;7385409;19;20557;-78
2022/09/15 00:08:23;;;;;;;8.05;1.13;;;;;;;17.08;78.73;100594.16;7387216;19;20010;-77
2022/09/15 00:10:57;;;;;;;7.82;1.75;;;;;;;17.08;79.03;100588.84;7387406;19;20010;-77
2022/09/15 00:13:25;;;;;;;5.55;1.90;;;;;;;17.08;80.03;100592.34;7387764;19;20023;-78
2022/09/15 00:15:52;;;;;;;4.70;1.30;;;;;;;17.08;79.96;100596.81;7387569;19;20042;-79
2022/09/15 00:18:20;;;;;;;9.38;1.58;;;;;;;17.09;79.03;100588.66;7387814;19;20027;-78
2022/09/15 00:20:47;;;;;;;5.03;1.50;;;;;;;17.12;79.02;100605.25;7387338;19;20372;-78
2022/09/15 00:23:16;;;;;;;4.93;1.15;;;;;;;17.09;78.73;100599.28;7387245;19;20386;-78
2022/09/15 00:25:47;;;;;;;3.92;1.83;;;;;;;17.08;78.66;100607.47;7387784;19;20006;-78
2022/09/15 00:28:16;;;;;;;7.25;2.20;;;;;;;17.04;78.61;100607.06;7386383;19;20021;-77
2022/09/15 00:30:46;;;;;;;5.55;2.10;;;;;;;17.02;78.98;100609.09;7385845;19;20472;-79
2022/09/15 00:33:15;;;;;;;5.57;1.83;;;;;;;17.00;78.68;100605.00;7387041;19;20353;-77
2022/09/15 00:35:44;;;;;;;7.63;2.10;;;;;;;16.96;78.83;100607.25;7385030;19;20038;-77
2022/09/15 00:38:13;;;;;;;4.53;1.85;;;;;;;16.92;78.84;100613.13;7387651;19;20394;-78
2022/09/15 00:40:44;;;;;;;9.50;2.40;;;;;;;16.89;79.08;100608.22;7389188;19;20032;-79
2022/09/15 00:43:12;;;;;;;6.25;1.95;;;;;;;16.84;79.05;100606.16;7383300;19;20039;-77
2022/09/15 00:45:40;;;;;;;6.88;2.30;;;;;;;16.83;79.37;100612.50;7386265;19;20074;-78
2022/09/15 00:48:14;;;;;;;6.13;2.63;;;;;;;16.81;79.38;100608.41;7389532;19;20012;-78
2022/09/15 00:50:48;;;;;;;5.00;2.35;;;;;;;16.74;79.72;100612.88;7384714;19;20030;-77
2022/09/15 00:53:17;;;;;;;7.28;2.38;;;;;;;16.72;80.05;100610.41;7387309;19;20007;-77
2022/09/15 00:55:47;;;;;;;7.57;2.75;;;;;;;16.70;79.93;100619.59;7386960;19;20040;-77
2022/09/15 00:58:21;;;;;;;6.28;2.83;;;;;;;16.66;80.07;100619.97;7386810;19;20023;-77
2022/09/15 01:00:55;;;;;;;9.38;3.30;;;;;;;16.64;80.39;100616.72;7385247;19;20041;-77
2022/09/15 01:03:25;;;;;;;7.45;3.40;;;;;;;16.58;80.22;100619.31;7387786;19;20021;-77
2022/09/15 01:05:57;;;;;;;6.63;3.28;;;;;;;16.57;80.54;100620.31;7386644;19;20041;-77
2022/09/15 01:08:31;;;;;;;7.93;3.85;;;;;;;16.55;80.21;100617.88;7386799;19;20473;-77
2022/09/15 01:10:59;;;;;;;7.53;4.10;;;;;;;16.51;80.52;100624.56;7385994;19;20019;-77
2022/09/15 01:13:28;;;;;;;7.10;3.78;;;;;;;16.52;81.21;100617.44;7381074;19;20018;-78
2022/09/15 01:16:02;;;;;;;9.88;4.47;;;;;;;16.55;80.78;100622.38;7385420;19;20377;-77
2022/09/15 01:18:31;;;;;;;9.68;4.60;;;;;;;16.55;80.54;100623.19;7387852;19;20007;-78
2022/09/15 01:21:04;;;;;;;11.88;4.35;;;;;;;16.55;80.68;100622.38;7387239;19;20010;-77
2022/09/15 01:23:43;;;;;;;7.47;4.60;;;;;;;16.53;80.36;100627.03;7387434;19;20027;-78
2022/09/15 01:26:17;;;;;;;11.48;4.82;;;;;;;16.50;80.28;100620.31;7389193;19;20472;-78
2022/09/15 01:28:47;;;;;;;7.63;4.45;;;;;;;16.50;80.40;100619.47;7383906;19;20441;-77
2022/09/15 01:31:24;;;;;;;9.00;5.18;;;;;;;16.47;80.34;100625.16;7386087;19;20035;-77
2022/09/15 01:33:55;;;;;;;9.15;5.07;;;;;;;16.43;80.35;100622.09;7386230;19;20018;-77
2022/09/15 01:36:33;;;;;;;11.05;5.70;;;;;;;16.41;80.58;100620.63;7387648;19;20031;-77
2022/09/15 01:39:05;;;;;;;11.80;5.13;;;;;;;16.35;80.45;100619.59;7387418;19;20010;-78
2022/09/15 01:41:38;;;;;;;10.15;4.88;;;;;;;16.32;80.62;100619.16;7385005;19;20049;-78
2022/09/15 01:44:12;;;;;;;10.13;5.35;;;;;;;16.31;80.47;100623.66;7384767;19;20022;-78
2022/09/15 01:46:45;;;;;;;10.43;5.88;;;;;;;16.29;80.43;100623.03;7384987;19;20014;-77
2022/09/15 01:49:19;;;;;;;13.43;6.03;;;;;;;16.23;80.64;100619.31;7384815;19;20138;-77
2022/09/15 01:51:50;;;;;;;10.82;5.68;;;;;;;16.20;81.19;100634.84;7384396;19;20027;-79
2022/09/15 01:54:24;;;;;;;12.55;5.55;;;;;;;16.17;81.49;100616.63;7384906;19;20502;-77
2022/09/15 01:56:51;;;;;;;9.55;5.55;;;;;;;16.17;81.10;100622.75;7388214;19;20536;-76
2022/09/15 01:59:18;;;;;;;12.25;6.03;;;;;;;16.15;81.25;100614.16;7380749;19;20006;-78
2022/09/15 02:01:56;;;;;;;12.55;5.60;;;;;;;16.19;81.14;100614.59;7382921;19;20078;-77
2022/09/15 02:04:29;;;;;;;11.77;6.28;;;;;;;16.18;81.06;100619.09;7385717;19;20518;-77
2022/09/15 02:07:10;;;;;;;12.50;5.80;;;;;;;16.14;81.38;100617.00;7384658;19;20094;-77
2022/09/15 02:09:47;;;;;;;9.82;5.50;;;;;;;16.15;81.59;100613.34;7382680;19;20090;-76
2022/09/15 02:12:25;;;;;;;11.68;5.93;;;;;;;16.15;81.57;100605.38;7379806;19;20018;-78
2022/09/15 02:15:06;;;;;;;13.73;5.70;;;;;;;16.15;81.54;100608.03;7384412;19;20476;-77
2022/09/15 02:17:38;;;;;;;10.93;5.80;;;;;;;16.13;81.67;100612.72;7383989;19;20475;-78
2022/09/15 02:20:14;;;;;;;12.60;5.75;;;;;;;16.12;81.94;100606.59;7383637;19;20066;-78
2022/09/15 02:22:49;;;;;;;8.32;5.00;;;;;;;16.14;81.85;100606.41;7384702;19;20022;-78
2022/09/15 02:25:23;;;;;;;9.38;5.15;;;;;;;16.13;82.13;100618.84;7384909;19;20045;-77
2022/09/15 02:27:53;;;;;;;9.48;5.20;;;;;;;16.15;82.27;100624.75;7382640;19;20054;-78
2022/09/15 02:30:21;;;;;;;8.52;5.38;;;;;;;16.17;82.40;100613.97;7383373;19;20011;-77
2022/09/15 02:32:56;;;;;;;10.60;5.45;;;;;;;16.18;82.30;100616.44;7383557;19;20043;-77
2022/09/15 02:35:27;;;;;;;14.65;5.65;;;;;;;16.19;82.03;100614.59;7384299;19;20018;-76
2022/09/15 02:37:55;;;;;;;13.13;5.68;;;;;;;16.20;82.30;100611.72;7384732;19;20014;-77
2022/09/15 02:40:24;;;;;;;11.18;5.13;;;;;;;16.23;82.05;100619.31;7385467;19;20007;-77
2022/09/15 02:42:54;;;;;;;10.80;5.45;;;;;;;16.23;82.04;100619.31;7379327;19;20034;-77
2022/09/15 02:45:23;;;;;;;13.13;5.88;;;;;;;16.22;82.40;100617.69;7383061;19;20175;-77
2022/09/15 02:47:51;;;;;;;12.00;5.57;;;;;;;16.21;82.45;100612.56;7386437;19;20018;-77
2022/09/15 02:50:19;;;;;;;10.48;5.40;;;;;;;16.20;82.54;100619.69;7382806;19;20039;-78
2022/09/15 02:52:47;;;;;;;9.60;4.88;;;;;;;16.20;82.41;100619.69;7382780;19;20014;-77
2022/09/15 02:55:15;;;;;;;10.60;5.40;;;;;;;16.19;82.47;100611.94;7381869;19;20015;-76
2022/09/15 02:57:42;;;;;;;10.38;5.15;;;;;;;16.20;82.60;100611.72;7380496;19;20089;-78
2022/09/15 03:00:12;;;;;;;10.57;5.22;;;;;;;16.21;82.63;100615.19;7380121;19;20042;-78
2022/09/15 03:02:41;;;;;;;11.63;5.70;;;;;;;16.19;82.59;100606.63;7385153;19;20010;-77
2022/09/15 03:05:09;;;;;;;9.73;5.28;;;;;;;16.19;82.51;100614.59;7386646;19;20010;-77
2022/09/15 03:07:37;;;;;;;10.35;5.18;;;;;;;16.18;82.62;100612.94;7390687;19;20059;-77
2022/09/15 03:10:08;;;;;;;11.27;5.43;;;;;;;16.18;83.00;100613.78;7391592;19;20013;-77
2022/09/15 03:12:39;;;;;;;11.98;5.18;;;;;;;16.16;82.87;100621.09;7385484;19;20035;-77
2022/09/15 03:15:10;;;;;;;14.18;5.38;;;;;;;16.14;82.93;100620.50;7389312;19;20565;-77
2022/09/15 03:17:40;;;;;;;12.68;5.68;;;;;;;16.14;82.82;100614.38;7389217;19;20014;-77
2022/09/15 03:20:10;;;;;;;11.90;5.28;;;;;;;16.14;82.65;100612.53;7389729;19;20002;-77
2022/09/15 03:22:38;;;;;;;10.88;4.95;;;;;;;16.14;82.21;100617.84;7389301;19;20049;-79
2022/09/15 03:25:07;;;;;;;12.00;5.47;;;;;;;16.11;82.33;100625.34;7390586;19;20374;-77
2022/09/15 03:27:35;;;;;;;9.43;5.10;;;;;;;16.10;82.48;100634.34;7388249;19;20007;-78
2022/09/15 03:30:04;;;;;;;10.38;5.78;;;;;;;16.06;82.56;100625.94;7391493;19;20025;-79
2022/09/15 03:32:32;;;;;;;9.82;5.03;;;;;;;16.06;82.71;100631.25;7387598;19;20019;-78
2022/09/15 03:34:59;;;;;;;11.70;5.38;;;;;;;16.03;82.63;100631.63;7390766;19;20356;-78
2022/09/15 03:37:28;;;;;;;8.27;5.65;;;;;;;15.99;82.52;100625.09;7392275;19;20003;-77
2022/09/15 03:39:57;;;;;;;11.48;5.65;;;;;;;15.99;82.71;100632.22;7391194;19;20090;-76
2022/09/15 03:42:27;;;;;;;9.48;4.78;;;;;;;15.98;82.90;100644.66;7390576;19;20400;-78
2022/09/15 03:44:57;;;;;;;10.82;5.32;;;;;;;15.98;82.70;100638.53;7391785;19;20567;-77
2022/09/15 03:47:25;;;;;;;8.32;4.70;;;;;;;15.91;82.80;100630.50;7389835;19;20452;-77
2022/09/15 03:49:52;;;;;;;10.65;4.22;;;;;;;15.88;82.86;100640.69;7391908;19;20018;-77
2022/09/15 03:52:20;;;;;;;9.70;4.15;;;;;;;15.86;83.33;100637.41;7390297;19;20546;-77
2022/09/15 03:54:48;;;;;;;7.45;4.40;;;;;;;15.82;83.09;100636.97;7390478;19;20019;-78
2022/09/15 03:57:16;;;;;;;7.25;3.92;;;;;;;15.81;83.39;100630.03;7390164;19;20050;-77
2022/09/15 03:59:45;;;;;;;7.28;3.90;;;;;;;15.81;83.15;100630.03;7392564;19;20042;-78
2022/09/15 04:02:14;;;;;;;6.45;3.50;;;;;;;15.81;82.79;100630.03;7390865;19;20021;-78
2022/09/15 04:04:42;;;;;;;5.90;3.83;;;;;;;15.81;82.48;100635.34;7388891;19;20551;-77
2022/09/15 04:07:09;;;;;;;8.27;3.90;;;;;;;15.81;82.70;100628.19;7391462;19;20011;-77
2022/09/15 04:09:40;;;;;;;8.00;3.22;;;;;;;15.82;82.64;100627.19;7392273;19;20074;-78
2022/09/15 04:12:09;;;;;;;8.07;3.75;;;;;;;15.87;82.08;100633.75;7388664;19;20022;-78
2022/09/15 04:14:37;;;;;;;7.78;3.55;;;;;;;15.85;81.69;100628.63;7391258;19;20019;-78
2022/09/15 04:17:05;;;;;;;5.88;2.63;;;;;;;15.85;81.80;100633.13;7389070;19;20022;-77
2022/09/15 04:19:34;;;;;;;6.95;2.90;;;;;;;15.84;81.67;100627.00;7388632;19;20085;-77
2022/09/15 04:22:01;;;;;;;6.30;2.35;;;;;;;15.85;81.35;100628.63;7388609;19;20066;-78
2022/09/15 04:24:29;;;;;;;9.18;2.30;;;;;;;15.85;81.06;100628.63;7389230;19;20088;-78
2022/09/15 04:26:57;;;;;;;5.10;2.42;;;;;;;15.83;81.14;100626.19;7389436;19;20472;-77
2022/09/15 04:29:24;;;;;;;5.82;2.17;;;;;;;15.83;80.83;100620.88;7386017;19;20060;-77
2022/09/15 04:31:52;;;;;;;6.30;1.70;;;;;;;15.83;80.69;100628.00;7386716;19;20046;-77
2022/09/15 04:34:20;;;;;;;4.10;2.05;;;;;;;15.80;80.98;100623.91;7389157;19;20411;-78
2022/09/15 04:36:48;;;;;;;5.97;2.22;;;;;;;15.81;80.81;100624.72;7387915;19;20030;-78
2022/09/15 04:39:16;;;;;;;4.55;1.73;;;;;;;15.79;80.98;100626.75;7386813;19;20018;-77
2022/09/15 04:41:43;;;;;;;3.38;1.60;;;;;;;15.76;80.79;100630.59;7386980;19;20006;-78
2022/09/15 04:44:11;;;;;;;5.53;2.00;;;;;;;15.77;80.63;100634.09;7385852;19;20018;-77
2022/09/15 04:46:38;;;;;;;5.82;1.95;;;;;;;15.73;80.70;100630.19;7386445;19;20378;-77
2022/09/15 04:49:05;;;;;;;4.75;1.73;;;;;;;15.72;80.97;100642.63;7385694;19;20019;-77
2022/09/15 04:51:33;;;;;;;4.35;1.63;;;;;;;15.73;81.44;100632.81;7386442;19;20565;-78
2022/09/15 04:54:00;;;;;;;6.35;1.70;;;;;;;15.73;81.42;100635.47;7387893;19;20082;-78
2022/09/15 04:56:28;;;;;;;4.40;1.45;;;;;;;15.75;80.86;100636.91;7388124;19;20010;-77
2022/09/15 04:58:57;;;;;;;7.50;2.08;;;;;;;15.77;80.90;100640.22;7385764;19;20035;-78
2022/09/15 05:01:32;;;;;;;6.05;1.38;;;;;;;15.80;80.75;100634.50;7385274;19;20007;-77
2022/09/15 05:04:02;;;;;;;4.68;1.70;;;;;;;15.85;80.75;100635.78;7383717;19;20018;-77
2022/09/15 05:06:30;;;;;;;5.28;1.40;;;;;;;15.88;80.72;100638.88;7386964;19;20018;-79
2022/09/15 05:08:58;;;;;;;3.65;1.58;;;;;;;15.90;80.42;100650.09;7385102;19;20044;-77
2022/09/15 05:11:27;;;;;;;5.32;1.30;;;;;;;15.92;80.72;100653.38;7384611;19;20090;-78
2022/09/15 05:13:54;;;;;;;5.80;1.75;;;;;;;15.94;80.58;100650.56;7384266;19;20367;-77
2022/09/15 05:16:24;;;;;;;4.03;1.80;;;;;;;15.95;80.48;100654.84;7386840;19;20461;-77
2022/09/15 05:18:55;;;;;;;8.65;1.55;;;;;;;15.95;80.26;100650.34;7385353;19;20014;-78
2022/09/15 05:21:23;;;;;;;4.22;1.70;;;;;;;15.96;80.55;100659.94;7386292;19;20010;-77
2022/09/15 05:23:51;;;;;;;5.10;1.88;;;;;;;15.99;80.37;100658.75;7384942;19;20019;-77
2022/09/15 05:26:23;;;;;;;2.97;1.67;;;;;;;16.00;80.12;100661.19;7386705;19;20476;-77
2022/09/15 05:28:51;;;;;;;5.47;2.10;;;;;;;16.03;80.00;100668.81;7382575;19;20015;-78
2022/09/15 05:31:22;;;;;;;4.47;1.63;;;;;;;16.04;80.12;100666.97;7386255;19;20010;-78
2022/09/15 05:33:51;;;;;;;4.32;1.35;;;;;;;16.04;79.76;100666.97;7385791;19;20324;-78
2022/09/15 05:36:23;;;;;;;4.70;1.50;;;;;;;16.03;79.98;100671.47;7384387;19;20014;-77
2022/09/15 05:38:55;;;;;;;7.95;1.52;;;;;;;16.02;80.06;100675.13;7384322;19;20010;-77
2022/09/15 05:41:23;;;;;;;3.10;1.45;;;;;;;16.00;80.10;100677.13;7386085;19;20959;-76
2022/09/15 05:43:52;;;;;;;4.30;1.52;;;;;;;16.00;79.94;100681.66;7379272;19;20018;-77
2022/09/15 05:46:20;;;;;;;5.30;1.75;;;;;;;15.98;79.84;100683.66;7384472;19;20078;-77
2022/09/15 05:48:48;;;;;;;4.55;1.73;;;;;;;15.96;80.30;100667.91;7385746;19;20007;-77
2022/09/15 05:51:17;;;;;;;4.32;1.92;;;;;;;15.99;80.25;100677.34;7384478;19;20011;-78
2022/09/15 05:53:47;;;;;;;4.95;1.50;;;;;;;15.97;80.85;100688.13;7382795;19;20082;-77
2022/09/15 05:56:18;;;;;;;3.78;1.60;;;;;;;15.94;81.18;100687.72;7384466;19;20045;-77
2022/09/15 05:58:47;;;;;;;5.17;2.33;;;;;;;15.99;81.21;100683.47;7381812;19;20018;-77
2022/09/15 06:01:18;;;;;;;7.82;2.58;;;;;;;15.95;81.25;100687.50;7384990;19;20022;-78
2022/09/15 06:03:47;;;;;;;4.90;2.05;;;;;;;15.93;81.17;100689.53;7383551;19;20018;-77
2022/09/15 06:06:15;;;;;;;5.47;2.10;;;;;;;15.95;82.00;100689.34;7381766;19;20133;-78
2022/09/15 06:08:47;;;;;;;4.20;1.77;;;;;;;15.97;81.92;100696.09;7383404;19;20047;-78
2022/09/15 06:11:20;;;;;;;4.60;1.92;;;;;;;16.00;82.16;100694.91;7384756;19;20025;-78
2022/09/15 06:13:47;;;;;;;6.38;1.73;;;;;;;16.01;82.16;100700.00;7381119;19;20018;-76
2022/09/15 06:16:18;;;;;;;5.32;2.17;;;;;;;16.04;82.19;100699.66;7383512;19;20078;-78
2022/09/15 06:18:47;;;;;;;6.78;2.00;;;;;;;16.09;82.35;100704.38;7383890;19;20029;-78
2022/09/15 06:21:17;;;;;;;8.40;2.10;;;;;;;16.12;82.41;100702.16;7384888;19;20078;-77
2022/09/15 06:23:44;;;;;;;5.88;2.08;;;;;;;16.14;82.07;100700.13;7383123;19;20014;-78
2022/09/15 06:26:17;;;;;;;11.73;2.13;;;;;;;16.15;82.41;100704.41;7387164;19;20138;-77
2022/09/15 06:28:50;;;;;;;5.57;1.90;;;;;;;16.17;82.79;100704.22;7379229;19;20020;-77
2022/09/15 06:31:18;;;;;;;6.68;2.42;;;;;;;16.21;83.01;100702.81;7383223;19;20063;-78
2022/09/15 06:33:50;;;;;;;6.10;2.00;;;;;;;16.24;83.15;100710.41;7385165;19;20011;-78
2022/09/15 06:36:20;;;;;;;10.43;2.13;;;;;;;16.29;83.35;100721.28;7386575;19;20423;-79
2022/09/15 06:38:48;;;;;;;6.40;1.88;;;;;;;16.32;83.36;100723.53;7384869;19;20044;-77
2022/09/15 06:44:36;;;;;;;6.00;2.00;;;;;;;16.37;82.88;100731.75;7388310;19;20530;-79
2022/09/15 06:47:04;;;;;;;8.40;1.65;;;;;;;16.35;83.21;100728.50;7392017;19;20006;-78
2022/09/15 06:49:31;;;;;;;5.25;2.00;;;;;;;16.36;83.12;100734.59;7391848;19;20035;-79
2022/09/15 06:52:01;;;;;;;9.35;2.58;;;;;;;16.36;83.28;100738.06;7390846;19;20363;-79
2022/09/15 06:54:30;;;;;;;6.35;1.70;;;;;;;16.38;83.62;100737.88;7390643;19;20035;-79
2022/09/15 06:56:57;;;;;;;5.30;1.80;;;;;;;16.40;83.49;100741.19;7389428;19;20346;-78
2022/09/15 06:59:25;;;;;;;5.95;1.88;;;;;;;16.41;83.25;100748.94;7389170;19;20309;-78
2022/09/15 07:01:57;;;;;;;8.85;1.67;;;;;;;16.41;83.62;100743.63;7389809;19;20018;-78
2022/09/15 07:04:32;;;;;;;5.40;1.42;;;;;;;16.43;83.35;100751.41;7389757;19;20014;-79
2022/09/15 07:07:00;;;;;;;8.07;1.60;;;;;;;16.48;84.28;100746.34;7392670;19;20476;-80
2022/09/15 07:09:27;;;;;;;7.53;1.60;;;;;;;16.52;84.24;100747.59;7389557;19;20423;-79
2022/09/15 07:11:55;;;;;;;6.53;1.60;;;;;;;16.54;83.89;100746.41;7390698;19;20014;-80
2022/09/15 07:14:22;;;;;;;7.75;1.40;;;;;;;16.56;83.25;100744.34;7388429;19;20018;-79
2022/09/15 07:16:50;;;;;;;5.72;1.42;;;;;;;16.57;82.91;100746.00;7390011;19;20381;-79
2022/09/15 07:19:17;;;;;;;8.48;1.40;;;;;;;16.58;82.99;100753.00;7389483;19;20010;-80
2022/09/15 07:21:44;;;;;;;7.70;1.27;;;;;;;16.60;83.27;100750.16;7391770;19;20014;-81
2022/09/15 07:24:11;;;;;;;5.65;1.58;;;;;;;16.62;82.90;100764.88;7388176;19;20349;-80
2022/09/15 07:26:39;;;;;;;7.78;1.52;;;;;;;16.64;82.77;100760.19;7390471;19;20482;-78
2022/09/15 07:29:08;;;;;;;9.32;1.38;;;;;;;16.65;82.85;100761.03;7389248;19;20496;-79
2022/09/15 07:31:38;;;;;;;8.93;1.20;;;;;;;16.66;82.93;100759.97;7389417;19;20486;-79
2022/09/15 07:34:06;;;;;;;8.90;1.60;;;;;;;16.69;83.12;100762.28;7388228;19;20014;-78
2022/09/15 07:36:34;;;;;;;5.82;1.70;;;;;;;16.71;82.89;100762.09;7391671;19;20713;-79
2022/09/15 07:39:03;;;;;;;7.63;1.42;;;;;;;16.74;82.41;100769.66;7389947;19;20014;-79
2022/09/15 07:41:31;;;;;;;5.95;1.45;;;;;;;16.74;81.95;100764.34;7391649;19;20039;-78
2022/09/15 07:44:00;;;;;;;7.53;1.38;;;;;;;16.75;81.24;100766.81;7387876;19;20019;-79
2022/09/15 07:46:30;;;;;;;7.75;1.20;;;;;;;16.73;81.65;100766.16;7391228;19;20013;-79
2022/09/15 07:48:59;;;;;;;7.90;1.35;;;;;;;16.72;81.76;100772.50;7389334;19;20513;-78
2022/09/15 07:51:27;;;;;;;6.07;1.00;;;;;;;16.72;81.81;100771.66;7389279;19;20014;-80
2022/09/15 07:53:56;;;;;;;6.57;1.13;;;;;;;16.72;81.41;100772.50;7387674;19;20014;-81
2022/09/15 07:56:23;;;;;;;8.70;1.50;;;;;;;16.72;81.50;100771.66;7389079;19;20078;-80
2022/09/15 07:58:51;;;;;;;6.05;1.27;;;;;;;16.71;81.50;100772.72;7386339;19;20018;-79
2022/09/15 08:01:21;;;;;;;5.90;0.77;;;;;;;16.69;81.29;100775.56;7388115;19;20011;-80
2022/09/15 08:03:50;;;;;;;4.78;1.20;;;;;;;16.67;81.19;100778.41;7390334;19;20010;-80
2022/09/15 08:06:21;;;;;;;6.03;1.10;;;;;;;16.67;81.37;100786.38;7386181;19;20021;-80
2022/09/15 08:08:49;;;;;;;6.30;1.00;;;;;;;16.67;81.65;100778.41;7387574;19;20020;-79
2022/09/15 08:11:27;;;;;;;8.82;1.55;;;;;;;16.72;81.00;100785.78;7388217;19;20022;-78
2022/09/15 08:13:55;;;;;;;5.30;1.10;;;;;;;16.71;81.45;100776.16;7383263;19;20294;-80
2022/09/15 08:16:23;;;;;;;4.82;1.23;;;;;;;16.74;80.95;100785.59;7387403;19;20082;-78
2022/09/15 08:18:52;;;;;;;4.22;0.90;;;;;;;16.75;81.07;100785.41;7385934;19;20014;-78
2022/09/15 08:21:21;;;;;;;6.75;1.08;;;;;;;16.76;81.48;100786.25;7388813;19;20017;-80
2022/09/15 08:23:54;;;;;;;11.43;1.20;;;;;;;16.81;80.51;100789.13;7387574;19;20491;-80
2022/09/15 08:26:22;;;;;;;5.05;0.70;;;;;;;16.84;80.48;100791.41;7388805;19;20017;-78
2022/09/15 08:28:50;;;;;;;3.30;0.60;;;;;;;16.85;81.04;100788.56;7383162;19;20101;-80
2022/09/15 08:31:18;;;;;;;4.20;0.75;;;;;;;16.87;80.26;100788.34;7387387;19;20082;-80
2022/09/15 08:33:48;;;;;;;10.07;1.30;;;;;;;16.88;79.95;100788.16;7383461;19;20010;-80
2022/09/15 08:36:17;;;;;;;4.97;0.82;;;;;;;16.90;79.91;100791.44;7388071;19;20078;-79
2022/09/15 08:38:45;;;;;;;6.13;0.70;;;;;;;16.93;80.35;100801.69;7384220;19;20347;-79
2022/09/15 08:41:21;;;;;;;8.48;1.35;;;;;;;16.97;80.03;100807.41;7385613;19;20018;-80
2022/09/15 08:43:52;;;;;;;11.35;1.67;;;;;;;16.97;80.11;100802.94;7382858;19;20015;-78
2022/09/15 08:46:28;;;;;;;3.50;0.70;;;;;;;17.00;79.48;100809.69;7388663;19;20406;-79
2022/09/15 08:49:04;;;;;;;6.00;0.55;;;;;;;17.02;78.98;100816.44;7385991;19;20024;-80
2022/09/15 08:51:42;;;;;;;5.10;0.77;;;;;;;17.04;78.36;100817.09;7387208;19;20035;-80
2022/09/15 08:54:19;;;;;;;5.35;0.50;;;;;;;17.04;78.57;100803.78;7385494;19;20018;-79
2022/09/15 08:56:47;;;;;;;5.55;0.57;;;;;;;17.05;78.36;100808.09;7386031;19;20042;-77
2022/09/15 08:59:17;;;;;;;1.92;0.43;;;;;;;17.07;78.60;100816.69;7384832;19;20011;-79
2022/09/15 09:01:51;;;;;;;4.40;1.05;;;;;;;17.10;77.78;100818.97;7384753;19;20006;-78
2022/09/15 09:04:25;;;;;;;5.10;0.70;;;;;;;17.09;77.40;100816.50;7385035;19;20379;-80
2022/09/15 09:07:02;;;;;;;4.93;0.70;;;;;;;17.13;77.43;100820.41;7383580;19;20014;-79
2022/09/15 09:09:34;;;;;;;4.38;0.80;;;;;;;17.12;77.58;100813.44;7386300;19;20113;-79
2022/09/15 09:12:14;;;;;;;5.57;0.47;;;;;;;17.14;77.49;100814.06;7387757;19;20086;-78
2022/09/15 09:14:49;;;;;;;6.28;0.88;;;;;;;17.18;78.21;100817.16;7387738;19;20022;-80
2022/09/15 09:17:20;;;;;;;4.50;0.60;;;;;;;17.21;78.19;100820.28;7385426;19;20018;-78
2022/09/15 09:19:52;;;;;;;7.80;0.60;;;;;;;17.26;77.63;100817.84;7387865;19;20326;-78
2022/09/15 09:22:24;;;;;;;3.47;0.50;;;;;;;17.31;77.47;100807.44;7386011;19;20019;-79
2022/09/15 09:24:55;;;;;;;4.00;0.50;;;;;;;17.35;77.38;100805.19;7385041;19;20532;-78
2022/09/15 09:27:27;;;;;;;5.63;1.05;;;;;;;17.38;77.26;100815.41;7383602;19;20357;-79
2022/09/15 09:29:59;;;;;;;11.57;0.75;;;;;;;17.43;77.94;100807.66;7385615;19;20012;-79
2022/09/15 09:32:34;;;;;;;4.50;0.70;;;;;;;17.47;76.31;100809.72;7384735;19;20010;-79
2022/09/15 09:35:11;;;;;;;8.15;0.90;;;;;;;17.50;75.43;100814.69;7386270;19;20018;-80
2022/09/15 09:37:38;;;;;;;7.47;0.63;;;;;;;17.49;75.28;100817.53;7385800;19;20014;-80
2022/09/15 09:40:13;;;;;;;5.65;1.02;;;;;;;17.49;75.54;100814.88;7386341;19;20465;-80
2022/09/15 09:42:42;;;;;;;5.20;0.95;;;;;;;17.50;76.47;100816.50;7384412;19;20022;-79
2022/09/15 09:45:13;;;;;;;7.85;0.80;;;;;;;17.51;77.50;100808.34;7383859;19;20047;-78
2022/09/15 09:47:42;;;;;;;4.22;0.50;;;;;;;17.55;75.48;100814.06;7383850;19;20014;-79
2022/09/15 09:50:16;;;;;;;7.15;0.60;;;;;;;17.56;74.43;100822.88;7384793;19;20019;-78
2022/09/15 09:52:43;;;;;;;4.50;0.68;;;;;;;17.54;74.92;100825.72;7384268;19;20468;-78
2022/09/15 09:55:23;;;;;;;5.03;0.60;;;;;;;17.53;75.11;100824.91;7384575;19;20010;-80
2022/09/15 09:57:50;;;;;;;6.22;0.50;;;;;;;17.56;75.40;100826.38;7382933;19;20014;-79
2022/09/15 10:00:24;;;;;;;4.90;0.52;;;;;;;17.62;76.35;100822.94;7386945;19;20373;-78
2022/09/15 10:02:51;;;;;;;5.88;0.60;;;;;;;17.64;75.88;100825.41;7386713;19;20010;-79
2022/09/15 10:05:19;;;;;;;5.20;0.63;;;;;;;17.68;73.47;100826.63;7381932;19;20018;-79
2022/09/15 10:07:47;;;;;;;3.60;0.30;;;;;;;17.73;73.34;100832.19;7384339;19;20045;-79
2022/09/15 10:10:20;;;;;;;5.15;0.57;;;;;;;17.73;72.97;100832.19;7387188;19;20021;-78
2022/09/15 10:12:48;;;;;;;;;;;;;;;17.74;72.98;100834.66;7381576;19;20018;-78
2022/09/15 10:15:23;;;;;;;4.97;0.50;;;;;;;17.72;73.01;100831.38;7382805;19;19914;-79
2022/09/15 10:17:52;;;;;;;7.75;0.68;;;;;;;17.74;73.04;100825.84;7384553;19;20035;-78
2022/09/15 10:20:27;;;;;;;4.63;0.70;;;;;;;17.74;73.00;100832.00;7386642;19;20070;-80
2022/09/15 10:23:01;;;;;;;4.97;0.60;;;;;;;17.77;72.68;100826.28;7387396;19;20010;-80
2022/09/15 10:25:32;;;;;;;2.75;0.60;;;;;;;17.80;71.91;100831.19;7387566;19;20047;-78
2022/09/15 10:28:22;;;;;;;3.95;0.70;;;;;;;17.82;71.92;100828.34;7384030;19;20006;-78
2022/09/15 10:30:56;;;;;;;5.93;0.68;;;;;;;17.79;72.00;100828.72;7383554;19;20087;-79
2022/09/15 10:33:27;;;;;;;4.43;0.70;;;;;;;17.80;72.58;100828.53;7383446;19;20027;-79
2022/09/15 10:36:01;;;;;;;4.80;0.60;;;;;;;17.82;73.04;100823.03;7384348;19;20013;-77
2022/09/15 10:38:33;;;;;;;6.88;0.80;;;;;;;17.84;72.97;100826.28;7385451;19;20031;-79
2022/09/15 10:41:07;;;;;;;5.50;1.02;;;;;;;17.87;71.97;100818.75;7383991;19;20015;-78
2022/09/15 10:43:37;;;;;;;7.70;1.00;;;;;;;17.90;71.23;100825.50;7382889;19;20390;-80
2022/09/15 10:46:11;;;;;;;2.10;0.88;;;;;;;17.94;71.29;100822.22;7380913;19;20338;-79
2022/09/15 10:48:46;;;;;;;3.55;1.23;;;;;;;18.00;71.73;100820.59;7382953;19;20500;-78
2022/09/15 10:51:19;;;;;;;6.47;1.80;;;;;;;18.08;70.78;100828.38;7383583;19;20058;-79
2022/09/15 10:53:58;;;;;;;6.18;1.90;;;;;;;18.11;69.78;100824.53;7384199;19;20006;-78
2022/09/15 10:56:28;;;;;;;7.50;1.70;;;;;;;18.12;70.71;100824.31;7383684;19;20014;-79
2022/09/15 10:59:19;;;;;;;6.80;1.98;;;;;;;18.17;69.56;100829.88;7381074;19;20027;-79
2022/09/15 11:01:58;;;;;;;6.20;1.90;;;;;;;18.22;69.07;100837.25;7385675;19;20520;-79
2022/09/15 11:04:30;;;;;;;7.85;2.05;;;;;;;18.21;69.59;100835.59;7381541;19;20085;-78
2022/09/15 11:07:10;;;;;;;4.75;2.00;;;;;;;18.19;69.18;100835.78;7383696;19;20015;-80
2022/09/15 11:09:44;;;;;;;3.67;0.90;;;;;;;18.26;67.38;100836.63;7381891;19;20070;-80
2022/09/15 11:12:16;;;;;;;4.97;1.10;;;;;;;18.24;67.41;100837.84;7382472;19;20464;-80
2022/09/15 11:14:51;;;;;;;5.40;0.90;;;;;;;18.19;67.48;100837.63;7380026;19;20006;-78
2022/09/15 11:17:30;;;;;;;6.22;0.93;;;;;;;18.17;67.12;100840.53;7380735;19;20018;-78
2022/09/15 11:20:06;;;;;;;3.45;0.75;;;;;;;18.18;65.83;100844.00;7385521;19;20010;-79
2022/09/15 11:22:39;;;;;;;2.58;0.98;;;;;;;18.18;66.07;100846.66;7384595;19;20553;-80
2022/09/15 11:25:13;;;;;;;5.68;0.90;;;;;;;18.15;66.05;100839.88;7383905;19;20031;-79
2022/09/15 11:27:49;;;;;;;5.28;1.08;;;;;;;18.16;65.87;100846.88;7381906;19;20043;-79
2022/09/15 11:30:22;;;;;;;6.97;1.00;;;;;;;18.19;64.92;100840.28;7390925;19;20023;-80
2022/09/15 11:32:55;;;;;;;4.63;0.80;;;;;;;18.24;64.81;100846.66;7389889;19;20044;-79
2022/09/15 11:35:32;;;;;;;5.38;0.90;;;;;;;18.23;64.59;100838.91;7390772;19;20014;-79
2022/09/15 11:38:08;;;;;;;3.65;1.30;;;;;;;18.29;65.16;100835.41;7389149;19;20504;-80
2022/09/15 11:40:48;;;;;;;3.28;0.90;;;;;;;18.42;63.71;100838.09;7390743;19;20010;-79
2022/09/15 11:43:22;;;;;;;4.32;0.65;;;;;;;18.41;64.27;100844.44;7389297;19;20390;-80